createdAt,value
2023-02-04T00:00:15.596Z,97332.97
2023-02-04T00:02:42.653Z,97332.34
2023-02-04T00:05:11.530Z,97339.13
2023-02-04T00:07:41.205Z,97337.09
2023-02-04T00:10:09.717Z,97341.25
2023-02-04T00:12:36.976Z,97357.50
2023-02-04T00:15:04.612Z,97346.41
2023-02-04T00:17:31.737Z,97352.50
2023-02-04T00:19:58.560Z,97358.63
2023-02-04T00:22:28.220Z,97362.63
2023-02-04T00:24:55.074Z,97365.81
2023-02-04T00:27:21.968Z,97381.22
2023-02-04T00:29:48.823Z,97374.94
2023-02-04T00:32:15.809Z,97378.56
2023-02-04T00:34:42.668Z,97382.41
2023-02-04T00:37:09.545Z,97375.19
2023-02-04T00:39:36.681Z,97388.09
2023-02-04T00:42:05.607Z,97385.72
2023-02-04T00:44:32.583Z,97395.03
2023-02-04T00:46:59.543Z,97401.69
2023-02-04T00:49:26.403Z,97401.41
2023-02-04T00:51:53.284Z,97412.72
2023-02-04T00:54:20.148Z,97406.28
2023-02-04T00:56:47.110Z,97421.38
2023-02-04T00:59:14.461Z,97420.25
2023-02-04T01:01:41.308Z,97419.97
2023-02-04T01:04:08.248Z,97432.13
2023-02-04T01:06:35.132Z,97422.38
2023-02-04T01:09:02.995Z,97426.31
2023-02-04T01:11:31.444Z,97435.06
2023-02-04T01:13:58.893Z,97425.03
2023-02-04T01:16:25.857Z,97429.38
2023-02-04T01:18:55.710Z,97451.88
2023-02-04T01:21:23.816Z,97444.03
2023-02-04T01:23:50.924Z,97434.31
2023-02-04T01:26:19.504Z,97449.16
2023-02-04T01:28:46.710Z,97452.84
2023-02-04T01:31:14.100Z,97446.84
2023-02-04T01:33:40.999Z,97444.75
2023-02-04T01:36:08.388Z,97457.31
2023-02-04T01:38:35.277Z,97467.88
2023-02-04T01:41:02.751Z,97476.72
2023-02-04T01:43:29.719Z,97468.09
2023-02-04T01:45:56.742Z,97468.69
2023-02-04T01:48:24.211Z,97472.72
2023-02-04T01:50:55.248Z,97475.25
2023-02-04T01:53:25.155Z,97476.47
2023-02-04T01:55:52.918Z,97472.66
2023-02-04T01:58:20.246Z,97486.09
2023-02-04T02:00:47.192Z,97474.81
2023-02-04T02:03:14.079Z,97477.25
2023-02-04T02:05:46.123Z,97482.16
2023-02-04T02:08:13.918Z,97475.69
2023-02-04T02:10:44.374Z,97477.31
2023-02-04T02:13:18.890Z,97488.69
2023-02-04T02:15:46.981Z,97483.72
2023-02-04T02:18:14.268Z,97489.69
2023-02-04T02:20:43.979Z,97500.50
2023-02-04T02:23:50.034Z,97492.88
2023-02-04T02:26:18.598Z,97509.03
2023-02-04T02:28:47.707Z,97507.38
2023-02-04T02:31:16.701Z,97510.69
2023-02-04T02:33:43.630Z,97499.59
2023-02-04T02:36:11.027Z,97506.69
2023-02-04T02:38:38.162Z,97507.78
2023-02-04T02:41:05.599Z,97519.69
2023-02-04T02:43:32.577Z,97520.91
2023-02-04T02:46:01.187Z,97523.50
2023-02-04T02:48:28.077Z,97523.69
2023-02-04T02:50:55.124Z,97517.06
2023-02-04T02:53:22.183Z,97520.09
2023-02-04T02:55:49.543Z,97514.88
2023-02-04T02:58:33.474Z,97519.97
2023-02-04T03:01:05.656Z,97525.00
2023-02-04T03:03:49.202Z,97526.13
2023-02-04T03:06:26.780Z,97528.31
2023-02-04T03:08:56.887Z,97536.25
2023-02-04T03:11:26.185Z,97540.13
2023-02-04T03:13:53.570Z,97545.00
2023-02-04T03:16:20.454Z,97538.94
2023-02-04T03:18:47.975Z,97539.38
2023-02-04T03:21:14.902Z,97542.56
2023-02-04T03:23:41.733Z,97549.19
2023-02-04T03:26:08.611Z,97546.78
2023-02-04T03:28:40.718Z,97550.75
2023-02-04T03:31:07.605Z,97559.59
2023-02-04T03:33:35.911Z,97566.16
2023-02-04T03:36:02.810Z,97577.44
2023-02-04T03:38:29.765Z,97577.97
2023-02-04T03:40:56.569Z,97584.19
2023-02-04T03:43:23.406Z,97591.59
2023-02-04T03:45:50.234Z,97608.34
2023-02-04T03:48:17.130Z,97605.34
2023-02-04T03:50:43.949Z,97604.22
2023-02-04T03:53:11.071Z,97621.28
2023-02-04T03:55:38.111Z,97624.00
2023-02-04T03:58:05.342Z,97631.72
2023-02-04T04:00:32.535Z,97632.94
2023-02-04T04:03:00.101Z,97629.50
2023-02-04T04:05:28.619Z,97629.38
2023-02-04T04:07:55.767Z,97628.41
2023-02-04T04:10:22.682Z,97638.16
2023-02-04T04:12:49.545Z,97645.72
2023-02-04T04:15:16.569Z,97637.75
2023-02-04T04:17:43.399Z,97631.56
2023-02-04T04:20:11.036Z,97646.41
2023-02-04T04:22:37.846Z,97642.16
2023-02-04T04:25:05.463Z,97641.34
2023-02-04T04:27:32.592Z,97644.06
2023-02-04T04:29:59.418Z,97656.44
2023-02-04T04:32:26.224Z,97649.16
2023-02-04T04:34:53.062Z,97649.00
2023-02-04T04:37:19.938Z,97628.97
2023-02-04T04:39:46.713Z,97650.38
2023-02-04T04:42:13.617Z,97663.31
2023-02-04T04:44:40.470Z,97661.41
2023-02-04T04:47:07.255Z,97651.19
2023-02-04T04:49:34.114Z,97659.34
2023-02-04T04:52:00.988Z,97659.88
2023-02-04T04:54:27.852Z,97660.16
2023-02-04T04:56:54.666Z,97663.56
2023-02-04T04:59:21.560Z,97675.25
2023-02-04T05:01:48.388Z,97670.16
2023-02-04T05:04:15.245Z,97669.34
2023-02-04T05:06:42.086Z,97675.41
2023-02-04T05:09:09.719Z,97676.50
2023-02-04T05:11:36.757Z,97687.22
2023-02-04T05:14:03.607Z,97692.72
2023-02-04T05:16:30.500Z,97702.63
2023-02-04T05:18:57.343Z,97707.56
2023-02-04T05:21:24.232Z,97708.81
2023-02-04T05:23:51.023Z,97713.31
2023-02-04T05:26:29.579Z,97722.25
2023-02-04T05:28:57.350Z,97710.03
2023-02-04T05:31:24.283Z,97716.34
2023-02-04T05:33:51.216Z,97726.50
2023-02-04T05:36:17.994Z,97721.03
2023-02-04T05:38:44.792Z,97719.91
2023-02-04T05:41:11.802Z,97714.69
2023-02-04T05:43:39.892Z,97723.19
2023-02-04T05:46:06.792Z,97722.13
2023-02-04T05:48:33.668Z,97733.00
2023-02-04T05:51:00.544Z,97745.06
2023-02-04T05:53:27.384Z,97752.91
2023-02-04T05:55:54.299Z,97762.38
2023-02-04T05:58:21.134Z,97763.63
2023-02-04T06:00:47.947Z,97773.78
2023-02-04T06:03:14.846Z,97775.44
2023-02-04T06:05:41.836Z,97769.09
2023-02-04T06:08:08.684Z,97780.25
2023-02-04T06:10:35.505Z,97781.56
2023-02-04T06:13:02.286Z,97788.91
2023-02-04T06:15:29.153Z,97789.16
2023-02-04T06:17:56.275Z,97793.06
2023-02-04T06:20:23.209Z,97782.88
2023-02-04T06:22:51.730Z,97796.63
2023-02-04T06:25:19.120Z,97803.50
2023-02-04T06:27:46.047Z,97800.31
2023-02-04T06:30:14.175Z,97801.84
2023-02-04T06:32:41.430Z,97792.19
2023-02-04T06:35:09.614Z,97809.22
2023-02-04T06:37:36.462Z,97814.47
2023-02-04T06:40:03.341Z,97810.56
2023-02-04T06:42:30.143Z,97812.53
2023-02-04T06:44:56.907Z,97813.34
2023-02-04T06:47:23.997Z,97813.00
2023-02-04T06:49:50.849Z,97813.06
2023-02-04T06:52:17.698Z,97821.78
2023-02-04T06:54:44.493Z,97827.78
2023-02-04T06:57:12.292Z,97834.31
2023-02-04T06:59:40.492Z,97829.63
2023-02-04T07:02:08.930Z,97842.56
2023-02-04T07:04:35.848Z,97834.84
2023-02-04T07:07:02.864Z,97838.66
2023-02-04T07:09:29.849Z,97842.38
2023-02-04T07:11:56.697Z,97841.97
2023-02-04T07:14:23.675Z,97856.44
2023-02-04T07:16:50.479Z,97859.31
2023-02-04T07:19:17.763Z,97862.28
2023-02-04T07:21:45.280Z,97862.09
2023-02-04T07:24:12.092Z,97868.72
2023-02-04T07:26:38.994Z,97878.91
2023-02-04T07:29:08.481Z,97873.44
2023-02-04T07:31:39.140Z,97875.63
2023-02-04T07:34:06.006Z,97880.19
2023-02-04T07:36:33.307Z,97894.03
2023-02-04T07:39:00.118Z,97892.44
2023-02-04T07:41:26.952Z,97897.38
2023-02-04T07:43:53.840Z,97912.34
2023-02-04T07:46:20.732Z,97903.69
2023-02-04T07:48:47.635Z,97918.19
2023-02-04T07:51:14.486Z,97928.97
2023-02-04T07:53:41.297Z,97926.19
2023-02-04T07:56:08.220Z,97928.09
2023-02-04T07:58:35.010Z,97937.16
2023-02-04T08:01:02.124Z,97930.81
2023-02-04T08:03:29.063Z,97921.44
2023-02-04T08:05:56.073Z,97930.81
2023-02-04T08:08:23.008Z,97935.81
2023-02-04T08:10:50.330Z,97939.69
2023-02-04T08:13:17.171Z,97942.91
2023-02-04T08:15:44.093Z,97952.69
2023-02-04T08:18:10.946Z,97958.44
2023-02-04T08:20:37.800Z,97964.56
2023-02-04T08:23:04.663Z,97968.44
2023-02-04T08:25:31.482Z,97974.25
2023-02-04T08:27:58.345Z,97970.25
2023-02-04T08:30:25.322Z,97968.47
2023-02-04T08:32:52.389Z,97971.78
2023-02-04T08:35:19.582Z,97970.69
2023-02-04T08:37:46.383Z,97972.19
2023-02-04T08:40:13.206Z,97982.78
2023-02-04T08:42:39.977Z,97986.66
2023-02-04T08:45:07.460Z,97988.84
2023-02-04T08:47:34.323Z,97987.59
2023-02-04T08:50:01.175Z,97994.75
2023-02-04T08:52:28.019Z,98003.69
2023-02-04T08:54:54.816Z,98007.41
2023-02-04T08:57:21.726Z,98014.84
2023-02-04T08:59:48.543Z,98019.34
2023-02-04T09:02:15.420Z,98026.53
2023-02-04T09:04:42.249Z,98038.09
2023-02-04T09:07:09.127Z,98044.56
2023-02-04T09:09:35.938Z,98049.59
2023-02-04T09:12:03.237Z,98056.13
2023-02-04T09:14:30.129Z,98069.94
2023-02-04T09:16:56.976Z,98071.41
2023-02-04T09:19:25.608Z,98078.56
2023-02-04T09:21:53.874Z,98069.78
2023-02-04T09:24:23.568Z,98062.75
2023-02-04T09:26:50.699Z,98052.25
2023-02-04T09:29:17.531Z,98047.75
2023-02-04T09:31:44.406Z,98056.38
2023-02-04T09:34:11.378Z,98067.91
2023-02-04T09:36:39.094Z,98074.94
2023-02-04T09:39:07.229Z,98081.03
2023-02-04T09:41:35.156Z,98084.03
2023-02-04T09:44:04.373Z,98097.44
2023-02-04T09:46:33.076Z,98080.53
2023-02-04T09:49:00.420Z,98099.75
2023-02-04T09:51:29.826Z,98093.63
2023-02-04T09:54:19.128Z,98096.88
2023-02-04T09:56:46.577Z,98090.53
2023-02-04T09:59:22.778Z,98097.94
2023-02-04T10:02:00.917Z,98093.94
2023-02-04T10:04:28.658Z,98098.16
2023-02-04T10:06:58.924Z,98101.59
2023-02-04T10:09:26.033Z,98113.91
2023-02-04T10:11:52.912Z,98116.47
2023-02-04T10:14:22.788Z,98114.09
2023-02-04T10:17:01.364Z,98118.09
2023-02-04T10:19:30.649Z,98119.63
2023-02-04T10:21:57.950Z,98106.63
2023-02-04T10:24:26.817Z,98109.78
2023-02-04T10:26:54.404Z,98120.56
2023-02-04T10:29:25.623Z,98127.66
2023-02-04T10:31:52.873Z,98121.75
2023-02-04T10:34:22.079Z,98122.44
2023-02-04T10:36:55.777Z,98121.28
2023-02-04T10:39:26.055Z,98127.25
2023-02-04T10:41:58.895Z,98125.69
2023-02-04T10:44:32.533Z,98132.28
2023-02-04T10:47:19.040Z,98125.41
2023-02-04T10:50:17.506Z,98119.63
2023-02-04T10:52:49.909Z,98120.22
2023-02-04T10:55:24.165Z,98120.94
2023-02-04T10:57:53.171Z,98121.94
2023-02-04T11:00:23.547Z,98129.25
2023-02-04T11:03:04.024Z,98123.84
2023-02-04T11:05:36.237Z,98127.44
2023-02-04T11:08:26.451Z,98123.34
2023-02-04T11:11:05.269Z,98123.59
2023-02-04T11:13:43.947Z,98123.63
2023-02-04T11:16:18.583Z,98118.06
2023-02-04T11:18:55.415Z,98111.06
2023-02-04T11:21:31.908Z,98110.13
2023-02-04T11:24:14.044Z,98110.13
2023-02-04T11:26:46.402Z,98106.09
2023-02-04T11:29:15.911Z,98108.75
2023-02-04T11:31:49.293Z,98116.22
2023-02-04T11:34:16.230Z,98108.50
2023-02-04T11:37:01.361Z,98123.69
2023-02-04T11:39:49.011Z,98119.09
2023-02-04T11:42:31.099Z,98114.41
2023-02-04T11:45:14.775Z,98117.44
2023-02-04T11:47:43.102Z,98108.03
2023-02-04T11:50:30.577Z,98116.53
2023-02-04T11:53:02.217Z,98113.81
2023-02-04T11:55:31.651Z,98112.13
2023-02-04T11:57:58.759Z,98101.66
2023-02-04T12:00:30.325Z,98097.47
2023-02-04T12:03:07.910Z,98101.22
2023-02-04T12:05:44.312Z,98103.78
2023-02-04T12:08:21.675Z,98101.94
2023-02-04T12:11:11.863Z,98099.84
2023-02-04T12:13:52.084Z,98096.88
2023-02-04T12:16:19.429Z,98087.75
2023-02-04T12:18:46.357Z,98085.59
2023-02-04T12:21:14.436Z,98077.56
2023-02-04T12:23:44.362Z,98078.44
2023-02-04T12:26:12.608Z,98079.72
2023-02-04T12:28:39.910Z,98080.13
2023-02-04T12:31:06.827Z,98098.22
2023-02-04T12:33:33.770Z,98101.66
2023-02-04T12:36:00.592Z,98087.78
2023-02-04T12:38:28.196Z,98093.41
2023-02-04T12:40:55.071Z,98096.09
2023-02-04T12:43:21.993Z,98102.19
2023-02-04T12:45:49.838Z,98100.16
2023-02-04T12:48:17.120Z,98097.75
2023-02-04T12:50:44.095Z,98088.94
2023-02-04T12:53:11.043Z,98079.41
2023-02-04T12:55:37.908Z,98103.59
2023-02-04T12:58:05.164Z,98095.63
2023-02-04T13:00:32.117Z,98098.16
2023-02-04T13:02:59.222Z,98098.03
2023-02-04T13:05:26.934Z,98098.34
2023-02-04T13:07:53.999Z,98100.88
2023-02-04T13:10:21.855Z,98097.16
2023-02-04T13:12:48.884Z,98103.88
2023-02-04T13:15:16.172Z,98108.84
2023-02-04T13:17:43.181Z,98110.72
2023-02-04T13:20:10.964Z,98107.59
2023-02-04T13:22:37.744Z,98115.88
2023-02-04T13:25:05.554Z,98118.53
2023-02-04T13:27:32.435Z,98107.31
2023-02-04T13:29:59.428Z,98115.50
2023-02-04T13:32:26.284Z,98107.66
2023-02-04T13:34:53.086Z,98107.91
2023-02-04T13:37:19.966Z,98117.28
2023-02-04T13:39:46.755Z,98119.78
2023-02-04T13:42:13.718Z,98128.59
2023-02-04T13:44:40.541Z,98135.06
2023-02-04T13:47:07.538Z,98134.06
2023-02-04T13:49:34.531Z,98138.78
2023-02-04T13:52:01.557Z,98141.00
2023-02-04T13:54:28.409Z,98149.66
2023-02-04T13:56:55.375Z,98151.72
2023-02-04T13:59:22.191Z,98143.47
2023-02-04T14:01:49.047Z,98149.75
2023-02-04T14:04:15.917Z,98154.03
2023-02-04T14:06:45.413Z,98154.50
2023-02-04T14:09:12.901Z,98165.00
2023-02-04T14:11:40.381Z,98161.13
2023-02-04T14:14:07.507Z,98169.13
2023-02-04T14:16:36.333Z,98164.16
2023-02-04T14:19:05.420Z,98173.09
2023-02-04T14:21:33.067Z,98181.50
2023-02-04T14:23:59.933Z,98186.22
2023-02-04T14:26:26.899Z,98172.44
2023-02-04T14:28:53.698Z,98169.41
2023-02-04T14:31:21.699Z,98175.19
2023-02-04T14:33:50.362Z,98178.06
2023-02-04T14:36:17.372Z,98178.19
2023-02-04T14:38:44.281Z,98180.50
2023-02-04T14:41:16.121Z,98187.41
2023-02-04T14:43:42.975Z,98178.84
2023-02-04T14:46:09.898Z,98182.53
2023-02-04T14:48:36.865Z,98182.63
2023-02-04T14:51:04.687Z,98179.94
2023-02-04T14:53:31.564Z,98180.59
2023-02-04T14:55:58.785Z,98172.69
2023-02-04T14:58:27.833Z,98173.84
2023-02-04T15:00:54.959Z,98175.50
2023-02-04T15:03:21.896Z,98173.19
2023-02-04T15:05:48.709Z,98184.78
2023-02-04T15:08:15.539Z,98174.66
2023-02-04T15:10:42.392Z,98178.78
2023-02-04T15:13:09.332Z,98177.81
2023-02-04T15:15:36.122Z,98172.06
2023-02-04T15:18:02.943Z,98171.13
2023-02-04T15:20:29.824Z,98182.44
2023-02-04T15:22:56.906Z,98175.31
2023-02-04T15:25:24.644Z,98184.69
2023-02-04T15:27:51.619Z,98192.97
2023-02-04T15:30:18.770Z,98205.53
2023-02-04T15:32:46.092Z,98206.72
2023-02-04T15:35:13.832Z,98209.38
2023-02-04T15:37:40.692Z,98211.28
2023-02-04T15:40:08.732Z,98219.84
2023-02-04T15:42:36.572Z,98209.34
2023-02-04T15:45:04.820Z,98216.50
2023-02-04T15:47:31.701Z,98232.09
2023-02-04T15:49:58.524Z,98232.72
2023-02-04T15:52:26.039Z,98233.47
2023-02-04T15:54:53.520Z,98240.44
2023-02-04T15:57:20.401Z,98239.53
2023-02-04T15:59:47.420Z,98245.31
2023-02-04T16:02:14.323Z,98245.84
2023-02-04T16:04:45.065Z,98238.72
2023-02-04T16:07:12.391Z,98245.59
2023-02-04T16:09:39.695Z,98242.53
2023-02-04T16:12:06.894Z,98238.47
2023-02-04T16:14:33.762Z,98238.72
2023-02-04T16:17:01.799Z,98253.63
2023-02-04T16:19:29.314Z,98252.63
2023-02-04T16:21:56.273Z,98252.72
2023-02-04T16:24:23.206Z,98252.13
2023-02-04T16:26:50.137Z,98254.44
2023-02-04T16:29:17.337Z,98260.72
2023-02-04T16:31:44.330Z,98260.97
2023-02-04T16:34:11.295Z,98265.06
2023-02-04T16:36:38.145Z,98265.84
2023-02-04T16:39:05.128Z,98277.34
2023-02-04T16:41:31.993Z,98287.97
2023-02-04T16:44:00.178Z,98296.94
2023-02-04T16:46:28.665Z,98280.69
2023-02-04T16:48:55.531Z,98284.47
2023-02-04T16:51:22.346Z,98279.72
2023-02-04T16:53:50.390Z,98281.19
2023-02-04T16:56:17.191Z,98285.59
2023-02-04T16:58:44.788Z,98291.03
2023-02-04T17:01:11.720Z,98300.38
2023-02-04T17:03:38.641Z,98297.47
2023-02-04T17:06:06.224Z,98309.53
2023-02-04T17:08:33.363Z,98320.97
2023-02-04T17:11:19.223Z,98318.47
2023-02-04T17:13:46.060Z,98314.94
2023-02-04T17:16:13.017Z,98315.97
2023-02-04T17:18:39.951Z,98323.47
2023-02-04T17:21:06.865Z,98323.88
2023-02-04T17:23:35.299Z,98322.22
2023-02-04T17:26:02.218Z,98330.97
2023-02-04T17:28:29.063Z,98329.81
2023-02-04T17:30:56.056Z,98322.34
2023-02-04T17:33:23.056Z,98325.03
2023-02-04T17:35:49.953Z,98327.63
2023-02-04T17:38:16.800Z,98331.06
2023-02-04T17:40:44.099Z,98329.28
2023-02-04T17:43:10.952Z,98332.50
2023-02-04T17:45:38.166Z,98331.81
2023-02-04T17:48:06.342Z,98330.97
2023-02-04T17:53:10.442Z,98341.97
2023-02-04T17:55:39.658Z,98338.25
2023-02-04T17:58:22.373Z,98337.50
2023-02-04T18:00:53.215Z,98343.63
2023-02-04T18:03:22.863Z,98350.69
2023-02-04T18:05:54.347Z,98345.91
2023-02-04T18:08:31.718Z,98339.25
2023-02-04T18:10:58.773Z,98350.69
2023-02-04T18:13:32.742Z,98354.84
2023-02-04T18:16:08.184Z,98349.31
2023-02-04T18:18:40.691Z,98353.41
2023-02-04T18:21:22.480Z,98350.69
2023-02-04T18:24:09.504Z,98348.72
2023-02-04T18:26:47.165Z,98334.47
2023-02-04T18:29:34.744Z,98345.28
2023-02-04T18:32:28.636Z,98342.78
2023-02-04T18:34:57.643Z,98343.00
2023-02-04T18:37:36.890Z,98344.47
2023-02-04T18:40:09.724Z,98337.69
2023-02-04T18:42:40.427Z,98344.88
2023-02-04T18:45:19.855Z,98339.84
2023-02-04T18:47:46.991Z,98346.94
2023-02-04T18:50:35.375Z,98343.19
2023-02-04T18:53:27.155Z,98346.25
2023-02-04T18:56:00.529Z,98350.00
2023-02-04T18:58:37.622Z,98350.59
2023-02-04T19:01:27.468Z,98346.44
2023-02-04T19:03:55.695Z,98349.22
2023-02-04T19:06:40.175Z,98346.72
2023-02-04T19:09:13.467Z,98348.88
2023-02-04T19:11:54.810Z,98348.78
2023-02-04T19:14:29.205Z,98350.31
2023-02-04T19:17:28.107Z,98350.13
2023-02-04T19:20:16.466Z,98353.63
2023-02-04T19:22:54.015Z,98350.50
2023-02-04T19:25:40.143Z,98354.81
2023-02-04T19:28:37.145Z,98358.16
2023-02-04T19:31:08.053Z,98355.00
2023-02-04T19:33:42.672Z,98343.97
2023-02-04T19:36:38.100Z,98350.22
2023-02-04T19:39:35.409Z,98353.91
2023-02-04T19:42:02.418Z,98356.16
2023-02-04T19:44:46.308Z,98350.97
2023-02-04T19:47:21.947Z,98352.09
2023-02-04T19:49:48.978Z,98343.75
2023-02-04T19:52:43.757Z,98349.78
2023-02-04T19:55:33.704Z,98355.25
2023-02-04T19:58:24.010Z,98343.41
2023-02-04T20:01:02.143Z,98348.97
2023-02-04T20:03:43.115Z,98350.38
2023-02-04T20:06:37.149Z,98354.72
2023-02-04T20:09:23.414Z,98352.13
2023-02-04T20:12:11.641Z,98351.97
2023-02-04T20:14:49.558Z,98356.38
2023-02-04T20:17:39.052Z,98359.25
2023-02-04T20:20:31.663Z,98356.81
2023-02-04T20:23:14.835Z,98352.84
2023-02-04T20:25:46.800Z,98363.41
2023-02-04T20:28:24.001Z,98358.38
2023-02-04T20:30:52.359Z,98364.59
2023-02-04T20:33:48.906Z,98371.13
2023-02-04T20:36:35.733Z,98366.78
2023-02-04T20:39:37.086Z,98380.72
2023-02-04T20:42:22.675Z,98385.69
2023-02-04T20:44:49.673Z,98389.19
2023-02-04T20:47:19.080Z,98392.06
2023-02-04T20:49:58.093Z,98392.06
2023-02-04T20:52:40.150Z,98386.88
2023-02-04T20:55:27.828Z,98387.03
2023-02-04T20:58:17.795Z,98396.75
2023-02-04T21:00:48.599Z,98396.91
2023-02-04T21:03:37.792Z,98398.78
2023-02-04T21:06:21.318Z,98400.75
2023-02-04T21:08:51.708Z,98405.94
2023-02-04T21:11:18.856Z,98412.56
2023-02-04T21:13:45.724Z,98409.22
2023-02-04T21:16:12.588Z,98413.47
2023-02-04T21:18:39.723Z,98410.81
2023-02-04T21:21:08.501Z,98415.78
2023-02-04T21:23:36.708Z,98415.78
2023-02-04T21:26:04.696Z,98416.97
2023-02-04T21:28:32.404Z,98417.47
2023-02-04T21:31:00.312Z,98421.38
2023-02-04T21:33:27.545Z,98420.13
2023-02-04T21:35:54.610Z,98414.47
2023-02-04T21:38:21.436Z,98418.75
2023-02-04T21:40:48.359Z,98412.22
2023-02-04T21:43:15.255Z,98414.38
2023-02-04T21:45:42.074Z,98420.75
2023-02-04T21:48:09.021Z,98420.19
2023-02-04T21:50:38.394Z,98424.84
2023-02-04T21:53:07.419Z,98431.34
2023-02-04T21:55:35.661Z,98424.78
2023-02-04T21:58:02.693Z,98437.50
2023-02-04T22:00:29.981Z,98430.06
2023-02-04T22:02:56.998Z,98420.28
2023-02-04T22:05:24.359Z,98424.72
2023-02-04T22:08:00.123Z,98420.84
2023-02-04T22:10:27.042Z,98413.41
2023-02-04T22:12:53.901Z,98418.59
2023-02-04T22:15:21.559Z,98423.53
2023-02-04T22:17:49.253Z,98419.28
2023-02-04T22:20:17.148Z,98429.66
2023-02-04T22:22:47.641Z,98421.94
2023-02-04T22:25:17.497Z,98435.84
2023-02-04T22:27:44.512Z,98432.53
2023-02-04T22:30:13.540Z,98436.03
2023-02-04T22:32:40.637Z,98435.84
2023-02-04T22:35:12.244Z,98435.38
2023-02-04T22:37:41.150Z,98425.47
2023-02-04T22:40:10.262Z,98431.09
2023-02-04T22:42:37.108Z,98419.34
2023-02-04T22:45:04.985Z,98423.94
2023-02-04T22:47:32.234Z,98430.31
2023-02-04T22:49:59.073Z,98429.47
2023-02-04T22:52:26.023Z,98428.16
2023-02-04T22:54:53.451Z,98428.53
2023-02-04T22:57:20.266Z,98435.22
2023-02-04T22:59:47.103Z,98428.38
2023-02-04T23:02:14.306Z,98422.81
2023-02-04T23:04:43.902Z,98412.63
2023-02-04T23:07:12.372Z,98419.66
2023-02-04T23:09:39.710Z,98427.03
2023-02-04T23:12:12.920Z,98407.69
2023-02-04T23:14:46.947Z,98415.16
2023-02-04T23:17:15.818Z,98409.16
2023-02-04T23:19:43.227Z,98412.78
2023-02-04T23:22:12.668Z,98410.47
2023-02-04T23:24:40.850Z,98402.94
2023-02-04T23:27:09.285Z,98405.44
2023-02-04T23:29:36.200Z,98402.84
2023-02-04T23:32:04.087Z,98415.03
2023-02-04T23:34:31.577Z,98421.47
2023-02-04T23:36:58.478Z,98427.47
2023-02-04T23:39:25.336Z,98418.16
2023-02-04T23:41:52.720Z,98425.00
2023-02-04T23:44:19.681Z,98428.31
2023-02-04T23:46:46.534Z,98427.97
2023-02-04T23:49:13.744Z,98426.16
2023-02-04T23:51:40.641Z,98423.63
2023-02-04T23:54:07.690Z,98417.81
2023-02-04T23:56:34.952Z,98421.13
2023-02-04T23:59:02.310Z,98420.97
